Time;durP1;ratioP1;P1;durP2;ratioP2;P2;SDS_P1;SDS_P2;PMS_P1;PMS_P2;Temp;Humidity;BMP_temperature;BMP_pressure;BME280_temperature;BME280_humidity;BME280_pressure;Samples;Min_cycle;Max_cycle;Signal;HPM_P1;HPM_P2
2023/05/02 00:00:04;;;;;;;;;;;;;;;22.53;44.25;101980.47;7251586;19;153592;-54
2023/05/02 00:02:32;;;;;;;;;;;;;;;22.54;44.32;101980.13;7252518;19;154855;-54
2023/05/02 00:04:59;;;;;;;;;;;;;;;22.50;44.23;101981.88;7255340;19;155947;-54
2023/05/02 00:07:26;;;;;;;;;;;;;;;22.50;44.15;101981.88;7254487;19;152866;-54
2023/05/02 00:09:53;;;;;;;;;;;;;;;22.49;44.20;101982.16;7262865;19;156352;-54
2023/05/02 00:12:20;;;;;;;;;;;;;;;22.49;44.15;101987.78;7254474;19;154390;-53
2023/05/02 00:14:47;;;;;;;;;;;;;;;22.40;44.30;101987.59;7254073;19;153112;-54
2023/05/02 00:17:16;;;;;;;;;;;;;;;22.41;44.68;101989.28;7254935;19;153203;-53
2023/05/02 00:19:43;;;;;;;;;;;;;;;22.39;44.26;101991.56;7254851;19;151967;-54
2023/05/02 00:22:10;;;;;;;;;;;;;;;22.34;44.83;101993.59;7253440;19;155599;-54
2023/05/02 00:24:37;;;;;;;;;;;;;;;22.34;44.82;101994.44;7254532;19;154299;-54
2023/05/02 00:27:05;;;;;;;;;;;;;;;22.31;44.53;101989.38;7253491;19;154331;-54
2023/05/02 00:29:31;;;;;;;;;;;;;;;22.30;44.53;101990.53;7251099;19;154406;-54
2023/05/02 00:31:58;;;;;;;;;;;;;;;22.27;44.79;101982.66;7257250;19;154646;-54
2023/05/02 00:34:29;;;;;;;;;;;;;;;22.26;44.92;101995.03;7257795;19;154125;-54
2023/05/02 00:36:56;;;;;;;;;;;;;;;22.26;44.80;102002.69;7253093;19;153459;-54
2023/05/02 00:39:23;;;;;;;;;;;;;;;22.26;44.85;101994.22;7253732;19;153562;-54
2023/05/02 00:42:00;;;;;;;;;;;;;;;22.24;45.29;101988.03;7254509;19;154445;-54
2023/05/02 00:44:27;;;;;;;;;;;;;;;22.19;45.14;101994.56;7251361;19;153782;-54
2023/05/02 00:46:55;;;;;;;;;;;;;;;22.19;45.29;101997.38;7251549;19;153219;-54
2023/05/02 00:49:22;;;;;;;;;;;;;;;22.16;45.47;101996.00;7253649;19;153162;-53
2023/05/02 00:51:49;;;;;;;;;;;;;;;22.16;45.65;101997.97;7253052;19;154032;-53
2023/05/02 00:54:16;;;;;;;;;;;;;;;22.16;45.29;101997.97;7264262;19;154018;-54
2023/05/02 00:56:43;;;;;;;;;;;;;;;22.14;45.26;102000.22;7253769;19;153898;-53
2023/05/02 00:59:10;;;;;;;;;;;;;;;22.12;45.55;101994.88;7253222;19;153063;-54
2023/05/02 01:01:41;;;;;;;;;;;;;;;22.11;45.38;101998.00;7254557;19;152716;-54
2023/05/02 01:04:11;;;;;;;;;;;;;;;22.11;45.75;102012.94;7252633;19;153957;-54
2023/05/02 01:06:53;;;;;;;;;;;;;;;22.09;45.79;102008.69;7255432;19;153994;-53
2023/05/02 01:09:30;;;;;;;;;;;;;;;22.11;45.84;102017.72;7255044;19;155488;-54
2023/05/02 01:11:58;;;;;;;;;;;;;;;22.07;46.00;102011.00;7254211;19;154518;-54
2023/05/02 01:14:28;;;;;;;;;;;;;;;22.07;45.97;102020.28;7252465;19;154807;-53
2023/05/02 01:16:55;;;;;;;;;;;;;;;22.07;46.10;102022.25;7261546;19;153713;-53
2023/05/02 01:19:28;;;;;;;;;;;;;;;22.04;46.04;102017.19;7254948;19;153836;-55
2023/05/02 01:21:55;;;;;;;;;;;;;;;22.04;46.21;102028.44;7255859;19;153547;-54
2023/05/02 01:24:26;;;;;;;;;;;;;;;22.02;46.13;102023.13;7255115;19;154478;-53
2023/05/02 01:27:02;;;;;;;;;;;;;;;22.03;46.35;102016.34;7253308;19;153325;-53
2023/05/02 01:29:31;;;;;;;;;;;;;;;22.02;46.66;102023.13;7251797;19;155416;-54
2023/05/02 01:31:59;;;;;;;;;;;;;;;22.02;46.38;102023.13;7253744;19;153665;-54
2023/05/02 01:34:28;;;;;;;;;;;;;;;22.01;46.64;102034.66;7254831;19;152731;-53
2023/05/02 01:36:59;;;;;;;;;;;;;;;22.00;46.52;102032.97;7253380;19;152613;-53
2023/05/02 01:39:26;;;;;;;;;;;;;;;22.01;46.72;102034.66;7259322;19;153560;-53
2023/05/02 01:41:55;;;;;;;;;;;;;;;21.97;46.85;102033.56;7254679;19;155900;-53
2023/05/02 01:44:23;;;;;;;;;;;;;;;21.99;46.91;102036.91;7249159;19;155231;-53
2023/05/02 01:46:51;;;;;;;;;;;;;;;21.95;46.77;102039.47;7252129;19;153841;-53
2023/05/02 01:49:20;;;;;;;;;;;;;;;21.94;47.28;102037.78;7247912;19;154924;-53
2023/05/02 01:51:49;;;;;;;;;;;;;;;21.91;47.04;102041.16;7251545;19;152685;-53
2023/05/02 01:54:17;;;;;;;;;;;;;;;21.92;47.00;102044.81;7253804;19;152635;-53
2023/05/02 01:56:45;;;;;;;;;;;;;;;21.90;47.32;102047.06;7253793;19;153185;-53
2023/05/02 01:59:14;;;;;;;;;;;;;;;21.89;47.21;102054.69;7248305;19;154182;-53
2023/05/02 02:01:44;;;;;;;;;;;;;;;21.89;47.57;102054.69;7257865;19;154220;-53
2023/05/02 02:04:12;;;;;;;;;;;;;;;21.88;47.64;102057.81;7252258;19;154630;-53
2023/05/02 02:06:42;;;;;;;;;;;;;;;21.86;47.71;102071.31;7250343;19;154476;-53
2023/05/02 02:09:09;;;;;;;;;;;;;;;21.84;47.53;102074.44;7250979;19;153162;-53
2023/05/02 02:11:42;;;;;;;;;;;;;;;21.84;47.74;102062.31;7253551;19;154586;-53
2023/05/02 02:14:14;;;;;;;;;;;;;;;21.84;47.71;102067.97;7252612;19;154088;-53
2023/05/02 02:16:41;;;;;;;;;;;;;;;21.82;47.66;102071.03;7251149;19;154090;-53
2023/05/02 02:19:09;;;;;;;;;;;;;;;21.83;47.63;102063.44;7256362;19;155121;-53
2023/05/02 02:21:37;;;;;;;;;;;;;;;21.80;48.17;102061.22;7266618;19;153965;-53
2023/05/02 02:24:05;;;;;;;;;;;;;;;21.80;48.23;102066.84;7259889;19;153834;-53
2023/05/02 02:26:32;;;;;;;;;;;;;;;21.80;47.98;102078.09;7254591;19;154160;-53
2023/05/02 02:29:00;;;;;;;;;;;;;;;21.78;48.30;102074.72;7258588;19;155704;-53
2023/05/02 02:31:38;;;;;;;;;;;;;;;21.76;48.14;102071.38;7252840;19;154056;-53
2023/05/02 02:34:05;;;;;;;;;;;;;;;21.77;48.41;102084.28;7261011;19;153533;-53
2023/05/02 02:36:35;;;;;;;;;;;;;;;21.77;48.41;102087.94;7259273;19;154884;-53
2023/05/02 02:39:02;;;;;;;;;;;;;;;21.77;48.71;102099.19;7255803;19;154429;-60
2023/05/02 02:41:37;;;;;;;;;;;;;;;21.76;48.69;102097.50;7258010;19;152638;-53
2023/05/02 02:44:17;;;;;;;;;;;;;;;21.76;48.37;102105.97;7265586;19;154711;-53
2023/05/02 02:46:47;;;;;;;;;;;;;;;21.76;48.41;102094.69;7256899;19;152570;-53
2023/05/02 02:49:26;;;;;;;;;;;;;;;21.73;48.96;102106.53;7258291;19;154409;-54
2023/05/02 02:51:57;;;;;;;;;;;;;;;21.73;48.60;102107.38;7255111;19;153081;-54
2023/05/02 02:54:33;;;;;;;;;;;;;;;21.72;49.10;102104.84;7257089;19;154374;-53
2023/05/02 02:57:03;;;;;;;;;;;;;;;21.73;49.21;102104.56;7259901;19;152699;-54
2023/05/02 02:59:33;;;;;;;;;;;;;;;21.71;48.97;102112.44;7256619;19;154506;-54
2023/05/02 03:02:05;;;;;;;;;;;;;;;21.70;48.68;102113.59;7258338;19;153176;-54
2023/05/02 03:04:41;;;;;;;;;;;;;;;21.71;49.16;102120.88;7256279;19;154180;-54
2023/05/02 03:07:08;;;;;;;;;;;;;;;21.70;49.16;102113.59;7261988;19;153328;-53
2023/05/02 03:09:45;;;;;;;;;;;;;;;21.70;48.77;102116.41;7257107;19;154212;-53
2023/05/02 03:12:12;;;;;;;;;;;;;;;21.70;48.75;102122.03;7256179;19;153723;-53
2023/05/02 03:14:39;;;;;;;;;;;;;;;21.68;48.88;102118.66;7254918;19;152185;-53
2023/05/02 03:17:07;;;;;;;;;;;;;;;21.67;49.37;102121.75;7259926;19;154382;-54
2023/05/02 03:19:34;;;;;;;;;;;;;;;21.69;49.12;102133.56;7256340;19;154470;-54
2023/05/02 03:22:01;;;;;;;;;;;;;;;21.67;49.04;102133.00;7258011;19;154155;-54
2023/05/02 03:24:28;;;;;;;;;;;;;;;21.68;49.13;102137.50;7255698;19;152833;-53
2023/05/02 03:26:56;;;;;;;;;;;;;;;21.67;49.03;102142.28;7257712;19;153790;-54
2023/05/02 03:29:23;;;;;;;;;;;;;;;21.67;48.82;102138.63;7264230;19;152630;-53
2023/05/02 03:31:50;;;;;;;;;;;;;;;21.66;49.22;102137.81;7252634;19;155163;-53
2023/05/02 03:34:18;;;;;;;;;;;;;;;21.64;48.94;102147.66;7258550;19;153307;-54
2023/05/02 03:36:45;;;;;;;;;;;;;;;21.63;48.96;102152.44;7258267;19;152823;-53
2023/05/02 03:39:12;;;;;;;;;;;;;;;21.65;48.85;102153.00;7256890;19;153815;-54
2023/05/02 03:41:39;;;;;;;;;;;;;;;21.63;49.16;102152.44;7259317;19;154495;-54
2023/05/02 03:44:06;;;;;;;;;;;;;;;21.61;49.40;102145.41;7255591;19;153757;-54
2023/05/02 03:46:32;;;;;;;;;;;;;;;21.62;49.17;102152.75;7254736;19;155071;-54
2023/05/02 03:48:59;;;;;;;;;;;;;;;21.60;49.22;102150.19;7259023;19;151834;-54
2023/05/02 03:51:26;;;;;;;;;;;;;;;21.59;49.55;102153.28;7261347;19;155691;-54
2023/05/02 03:53:53;;;;;;;;;;;;;;;21.61;49.53;102151.88;7257584;19;153149;-54
2023/05/02 03:56:20;;;;;;;;;;;;;;;21.61;49.18;102151.03;7254906;19;153191;-54
2023/05/02 03:58:48;;;;;;;;;;;;;;;21.59;49.53;102148.50;7254971;19;155632;-54
2023/05/02 04:01:15;;;;;;;;;;;;;;;21.58;49.33;102155.25;7251838;19;151867;-54
2023/05/02 04:03:42;;;;;;;;;;;;;;;21.59;49.65;102156.09;7256683;19;154211;-54
2023/05/02 04:06:09;;;;;;;;;;;;;;;21.58;49.85;102155.25;7255655;19;155122;-53
2023/05/02 04:08:36;;;;;;;;;;;;;;;21.57;50.01;102172.44;7255611;19;154013;-53
2023/05/02 04:11:03;;;;;;;;;;;;;;;21.56;49.82;102182.00;7254618;19;153656;-54
2023/05/02 04:13:30;;;;;;;;;;;;;;;21.56;49.97;102170.75;7263508;19;153670;-53
2023/05/02 04:15:57;;;;;;;;;;;;;;;21.56;49.90;102171.59;7254934;19;154055;-52
2023/05/02 04:18:24;;;;;;;;;;;;;;;21.56;49.67;102179.19;7253943;19;156626;-52
2023/05/02 04:20:51;;;;;;;;;;;;;;;21.55;49.61;102175.53;7253210;19;152190;-53
2023/05/02 04:23:18;;;;;;;;;;;;;;;21.56;49.35;102176.38;7252100;19;155308;-53
2023/05/02 04:25:55;;;;;;;;;;;;;;;21.54;49.31;102164.56;7254060;19;153461;-52
2023/05/02 04:28:22;;;;;;;;;;;;;;;21.54;49.30;102171.03;7256643;19;152452;-53
2023/05/02 04:30:50;;;;;;;;;;;;;;;21.53;49.69;102172.13;7251193;19;153169;-53
2023/05/02 04:33:17;;;;;;;;;;;;;;;21.51;49.56;102176.38;7263739;19;155095;-53
2023/05/02 04:35:44;;;;;;;;;;;;;;;21.51;49.71;102184.81;7254130;19;153645;-53
2023/05/02 04:38:13;;;;;;;;;;;;;;;21.50;49.53;102181.16;7253194;19;154350;-53
2023/05/02 04:40:40;;;;;;;;;;;;;;;21.49;49.55;102185.09;7257204;19;153020;-53
2023/05/02 04:43:06;;;;;;;;;;;;;;;21.51;49.58;102196.91;7254302;19;153780;-55
2023/05/02 04:45:38;;;;;;;;;;;;;;;21.49;49.79;102195.50;7253288;19;153978;-54
2023/05/02 04:48:05;;;;;;;;;;;;;;;21.49;49.92;102198.31;7254966;19;152983;-54
2023/05/02 04:50:32;;;;;;;;;;;;;;;21.47;49.56;102203.38;7252689;19;153383;-54
2023/05/02 04:52:59;;;;;;;;;;;;;;;21.47;49.51;102209.84;7255766;19;155527;-54
2023/05/02 04:55:26;;;;;;;;;;;;;;;21.47;49.54;102220.25;7259639;19;154094;-54
2023/05/02 04:57:54;;;;;;;;;;;;;;;21.48;49.57;102227.56;7252576;19;155552;-55
2023/05/02 05:00:21;;;;;;;;;;;;;;;21.45;49.82;102223.34;7255113;19;153866;-54
2023/05/02 05:02:48;;;;;;;;;;;;;;;21.48;49.46;102219.16;7255949;19;155294;-55
2023/05/02 05:05:15;;;;;;;;;;;;;;;21.46;49.47;102230.66;7254802;19;155233;-55
2023/05/02 05:07:42;;;;;;;;;;;;;;;21.45;49.48;102233.75;7254161;19;152905;-55
2023/05/02 05:10:11;;;;;;;;;;;;;;;21.45;49.45;102237.41;7255356;19;153773;-54
2023/05/02 05:12:38;;;;;;;;;;;;;;;21.44;49.51;102235.72;7254001;19;154546;-55
2023/05/02 05:15:06;;;;;;;;;;;;;;;21.42;49.50;102245.56;7251761;19;153714;-53
2023/05/02 05:17:33;;;;;;;;;;;;;;;21.43;49.86;102242.50;7260516;19;154268;-54
2023/05/02 05:20:00;;;;;;;;;;;;;;;21.44;49.73;102244.16;7249898;19;153438;-55
2023/05/02 05:22:27;;;;;;;;;;;;;;;21.41;49.56;102244.72;7255174;19;153234;-55
2023/05/02 05:24:54;;;;;;;;;;;;;;;21.44;49.43;102246.97;7253925;19;154637;-55
2023/05/02 05:27:21;;;;;;;;;;;;;;;21.44;49.65;102252.59;7254365;19;154047;-55
2023/05/02 05:29:48;;;;;;;;;;;;;;;21.41;49.89;102253.16;7249788;19;154253;-54
2023/05/02 05:32:14;;;;;;;;;;;;;;;21.42;49.44;102268.06;7249915;19;154007;-55
2023/05/02 05:34:41;;;;;;;;;;;;;;;21.41;49.67;102263.56;7255337;19;153807;-55
2023/05/02 05:37:08;;;;;;;;;;;;;;;21.44;49.92;102260.22;7253348;19;152837;-55
2023/05/02 05:39:35;;;;;;;;;;;;;;;21.40;49.78;102259.91;7259453;19;154796;-54
2023/05/02 05:42:02;;;;;;;;;;;;;;;21.39;49.91;102263.88;7252234;19;153818;-55
2023/05/02 05:44:30;;;;;;;;;;;;;;;21.37;49.67;102266.09;7249655;19;154669;-55
2023/05/02 05:46:57;;;;;;;;;;;;;;;21.37;50.15;102276.50;7253225;19;153320;-55
2023/05/02 05:49:24;;;;;;;;;;;;;;;21.35;50.19;102278.78;7252037;19;152695;-55
2023/05/02 05:51:51;;;;;;;;;;;;;;;21.35;49.81;102281.59;7248642;19;153790;-55
2023/05/02 05:54:18;;;;;;;;;;;;;;;21.35;50.17;102284.41;7250510;19;154258;-55
2023/05/02 05:56:47;;;;;;;;;;;;;;;21.34;49.75;102283.53;7251781;19;153449;-55
2023/05/02 05:59:14;;;;;;;;;;;;;;;21.35;49.85;102299.25;7251081;19;156057;-54
2023/05/02 06:01:41;;;;;;;;;;;;;;;21.34;49.97;102305.19;7260283;19;153463;-55
2023/05/02 06:04:08;;;;;;;;;;;;;;;21.34;49.89;102299.56;7259366;19;155684;-55
2023/05/02 06:06:35;;;;;;;;;;;;;;;21.33;49.92;102307.16;7253939;19;152901;-55
2023/05/02 06:09:03;;;;;;;;;;;;;;;21.32;49.98;102313.91;7256110;19;154055;-55
2023/05/02 06:11:29;;;;;;;;;;;;;;;21.33;49.54;102309.13;7251077;19;155442;-55
2023/05/02 06:13:56;;;;;;;;;;;;;;;21.34;49.58;102302.38;7255190;19;154175;-55
2023/05/02 06:16:23;;;;;;;;;;;;;;;21.33;49.98;102303.50;7248061;19;151862;-55
2023/05/02 06:18:51;;;;;;;;;;;;;;;21.33;49.96;102307.16;7251534;19;153510;-55
2023/05/02 06:21:18;;;;;;;;;;;;;;;21.32;49.88;102307.44;7259407;19;153454;-55
2023/05/02 06:23:45;;;;;;;;;;;;;;;21.30;49.90;102316.16;7251318;19;153815;-54
2023/05/02 06:26:12;;;;;;;;;;;;;;;21.30;50.13;102316.16;7253563;19;153263;-54
2023/05/02 06:28:40;;;;;;;;;;;;;;;21.32;49.91;102313.06;7252934;19;153353;-54
2023/05/02 06:31:07;;;;;;;;;;;;;;;21.28;49.88;102319.25;7247278;19;153579;-54
2023/05/02 06:33:34;;;;;;;;;;;;;;;21.30;49.89;102327.41;7249784;19;153384;-54
2023/05/02 06:36:03;;;;;;;;;;;;;;;21.30;49.71;102324.59;7251184;19;153218;-55
2023/05/02 06:38:30;;;;;;;;;;;;;;;21.31;49.97;102320.63;7250713;19;153580;-55
2023/05/02 06:40:57;;;;;;;;;;;;;;;21.30;49.60;102321.78;7250370;19;154017;-54
2023/05/02 06:43:24;;;;;;;;;;;;;;;21.29;50.01;102311.66;7257724;19;153849;-54
2023/05/02 06:45:53;;;;;;;;;;;;;;;21.29;50.06;102311.66;7245958;19;153836;-54
2023/05/02 06:48:20;;;;;;;;;;;;;;;21.28;49.69;102313.63;7252272;19;154015;-55
2023/05/02 06:50:47;;;;;;;;;;;;;;;21.32;49.90;102322.31;7249891;19;153716;-55
2023/05/02 06:53:15;;;;;;;;;;;;;;;21.29;49.55;102326.56;7251520;19;153231;-54
2023/05/02 06:55:43;;;;;;;;;;;;;;;21.29;49.86;102322.91;7250827;19;153930;-55
2023/05/02 06:58:10;;;;;;;;;;;;;;;21.28;49.98;102330.47;7252023;19;154710;-54
2023/05/02 07:00:37;;;;;;;;;;;;;;;21.28;49.93;102329.63;7249054;19;153259;-55
2023/05/02 07:03:04;;;;;;;;;;;;;;;21.26;49.72;102327.09;7251991;19;153907;-55
2023/05/02 07:05:31;;;;;;;;;;;;;;;21.25;49.93;102325.44;7258314;19;156113;-54
2023/05/02 07:07:59;;;;;;;;;;;;;;;21.26;49.58;102334.69;7260595;19;154077;-55
2023/05/02 07:10:28;;;;;;;;;;;;;;;21.28;49.76;102346.50;7258054;19;155048;-55
2023/05/02 07:12:55;;;;;;;;;;;;;;;21.25;50.01;102344.25;7257708;19;153895;-55
2023/05/02 07:15:23;;;;;;;;;;;;;;;21.26;49.65;102345.94;7256907;19;153842;-55
2023/05/02 07:17:51;;;;;;;;;;;;;;;21.26;49.72;102349.59;7253150;19;154471;-55
2023/05/02 07:20:18;;;;;;;;;;;;;;;21.26;49.89;102352.41;7257928;19;152599;-54
2023/05/02 07:22:45;;;;;;;;;;;;;;;21.24;49.63;102337.78;7258386;19;155864;-54
2023/05/02 07:25:12;;;;;;;;;;;;;;;21.24;49.54;102353.81;7256902;19;155127;-55
2023/05/02 07:27:39;;;;;;;;;;;;;;;21.23;49.75;102340.88;7265359;19;153237;-55
2023/05/02 07:30:07;;;;;;;;;;;;;;;21.23;49.60;102344.53;7255085;19;153479;-55
2023/05/02 07:32:34;;;;;;;;;;;;;;;21.22;50.07;102348.47;7259686;19;155150;-55
2023/05/02 07:35:01;;;;;;;;;;;;;;;21.20;50.13;102356.34;7257994;19;153733;-55
2023/05/02 07:37:31;;;;;;;;;;;;;;;21.21;49.99;102352.38;7258171;19;155477;-55
2023/05/02 07:40:00;;;;;;;;;;;;;;;21.25;49.59;102349.88;7258467;19;153412;-55
2023/05/02 07:42:29;;;;;;;;;;;;;;;21.24;49.81;102356.63;7256642;19;153838;-55
2023/05/02 07:44:57;;;;;;;;;;;;;;;21.25;49.65;102361.13;7255816;19;154657;-55
2023/05/02 07:47:25;;;;;;;;;;;;;;;21.29;49.42;102359.44;7258107;19;153422;-55
2023/05/02 07:49:53;;;;;;;;;;;;;;;21.25;49.60;102363.94;7263003;19;155268;-54
2023/05/02 07:52:20;;;;;;;;;;;;;;;21.22;49.66;102358.84;7255733;19;154820;-54
2023/05/02 07:54:49;;;;;;;;;;;;;;;21.22;49.77;102358.84;7255613;19;153397;-53
2023/05/02 07:57:16;;;;;;;;;;;;;;;21.21;49.53;102357.19;7254723;19;154256;-53
2023/05/02 07:59:43;;;;;;;;;;;;;;;21.20;49.86;102356.34;7253722;19;152498;-53
2023/05/02 08:02:12;;;;;;;;;;;;;;;21.20;49.97;102355.50;7257060;19;153728;-53
2023/05/02 08:04:39;;;;;;;;;;;;;;;21.19;49.75;102363.09;7253331;19;154883;-53
2023/05/02 08:07:07;;;;;;;;;;;;;;;21.20;49.79;102359.16;7258905;19;153966;-53
2023/05/02 08:09:34;;;;;;;;;;;;;;;21.18;49.67;102364.19;7255942;19;153458;-53
2023/05/02 08:12:02;;;;;;;;;;;;;;;21.21;49.61;102362.81;7261701;19;155191;-53
2023/05/02 08:14:29;;;;;;;;;;;;;;;21.19;49.92;102365.03;7254884;19;154228;-53
2023/05/02 08:16:56;;;;;;;;;;;;;;;21.18;50.00;102364.19;7252865;19;153264;-53
2023/05/02 08:19:23;;;;;;;;;;;;;;;21.18;49.72;102364.19;7255091;19;153216;-53
2023/05/02 08:21:52;;;;;;;;;;;;;;;21.16;49.97;102362.81;7254452;19;154080;-53
2023/05/02 08:24:20;;;;;;;;;;;;;;;21.17;49.51;102370.09;7254471;19;153362;-53
2023/05/02 08:26:47;;;;;;;;;;;;;;;21.17;49.45;102375.72;7254290;19;154468;-53
2023/05/02 08:29:14;;;;;;;;;;;;;;;21.17;49.77;102367.28;7253504;19;153516;-53
2023/05/02 08:31:44;;;;;;;;;;;;;;;21.16;49.55;102372.09;7259877;19;154040;-54
2023/05/02 08:34:11;;;;;;;;;;;;;;;21.13;49.73;102375.44;7256243;19;154142;-53
2023/05/02 08:36:38;;;;;;;;;;;;;;;21.14;49.86;102373.47;7252816;19;154942;-53
2023/05/02 08:39:07;;;;;;;;;;;;;;;21.17;50.06;102372.91;7255845;19;153794;-53
2023/05/02 08:41:34;;;;;;;;;;;;;;;21.14;50.05;102370.66;7246644;19;154861;-53
2023/05/02 08:44:03;;;;;;;;;;;;;;;21.14;49.89;102379.09;7257725;19;154146;-53
2023/05/02 08:46:33;;;;;;;;;;;;;;;21.12;49.62;102386.94;7251779;19;153016;-53
2023/05/02 08:49:01;;;;;;;;;;;;;;;21.14;49.23;102391.19;7256058;19;153289;-53
2023/05/02 08:51:29;;;;;;;;;;;;;;;21.13;49.71;102391.44;7252302;19;155289;-53
2023/05/02 08:53:56;;;;;;;;;;;;;;;21.12;49.60;102403.81;7263665;19;153761;-53
2023/05/02 08:56:24;;;;;;;;;;;;;;;21.14;49.78;102404.38;7251531;19;153836;-53
2023/05/02 08:58:51;;;;;;;;;;;;;;;21.12;49.45;102401.81;7256239;19;152893;-53
2023/05/02 09:01:21;;;;;;;;;;;;;;;21.13;49.71;102416.75;7252917;19;153240;-53
2023/05/02 09:03:53;;;;;;;;;;;;;;;21.18;49.57;102417.59;7253433;19;153785;-53
2023/05/02 09:06:21;;;;;;;;;;;;;;;21.25;49.86;102431.41;7255877;19;153530;-53
2023/05/02 09:08:49;;;;;;;;;;;;;;;21.31;49.48;102433.09;7257809;19;154781;-53
2023/05/02 09:11:17;;;;;;;;;;;;;;;21.38;49.92;102430.88;7255528;19;154620;-53
2023/05/02 09:13:45;;;;;;;;;;;;;;;21.44;49.35;102432.56;7256498;19;154007;-53
2023/05/02 09:16:15;;;;;;;;;;;;;;;21.49;49.43;102429.75;7261180;19;154350;-53
2023/05/02 09:18:42;;;;;;;;;;;;;;;21.54;49.33;102438.19;7255300;19;154015;-53
2023/05/02 09:21:10;;;;;;;;;;;;;;;21.61;49.53;102443.56;7254557;19;154722;-53
2023/05/02 09:23:39;;;;;;;;;;;;;;;21.66;49.34;102443.56;7253735;19;153920;-53
2023/05/02 09:26:11;;;;;;;;;;;;;;;21.70;49.42;102442.75;7251669;19;154155;-53
2023/05/02 09:28:40;;;;;;;;;;;;;;;21.77;49.46;102447.22;7252522;19;154185;-53
2023/05/02 09:31:08;;;;;;;;;;;;;;;21.82;49.36;102450.03;7246949;19;155754;-53
2023/05/02 09:33:36;;;;;;;;;;;;;;;21.89;48.73;102450.63;7253988;19;153416;-53
2023/05/02 09:36:03;;;;;;;;;;;;;;;21.95;49.01;102449.50;7224350;19;154677;-53
2023/05/02 09:38:31;;;;;;;;;;;;;;;22.00;48.65;102450.38;7252107;19;155350;-53
2023/05/02 09:40:58;;;;;;;;;;;;;;;22.05;48.33;102452.31;7247716;19;154960;-53
2023/05/02 09:43:26;;;;;;;;;;;;;;;22.12;48.15;102461.34;7245846;19;153554;-53
2023/05/02 09:45:56;;;;;;;;;;;;;;;22.16;48.42;102463.31;7245004;19;152574;-53
2023/05/02 09:48:24;;;;;;;;;;;;;;;22.23;48.27;102471.47;7249788;19;154621;-53
2023/05/02 09:50:51;;;;;;;;;;;;;;;22.29;48.15;102466.66;7246285;19;154299;-54
2023/05/02 09:53:19;;;;;;;;;;;;;;;22.35;47.67;102465.56;7250668;19;153204;-53
2023/05/02 09:55:46;;;;;;;;;;;;;;;22.39;47.72;102464.69;7249316;19;153840;-53
2023/05/02 09:58:24;;;;;;;;;;;;;;;22.44;47.41;102463.84;7251063;19;156101;-53
2023/05/02 10:00:51;;;;;;;;;;;;;;;22.48;47.32;102460.19;7253130;19;154160;-53
2023/05/02 10:03:18;;;;;;;;;;;;;;;22.54;47.02;102463.78;7249226;19;156087;-54
2023/05/02 10:05:46;;;;;;;;;;;;;;;22.57;47.22;102464.09;7250160;19;155372;-54
2023/05/02 10:08:15;;;;;;;;;;;;;;;22.61;46.94;102462.38;7251177;19;156058;-54
2023/05/02 10:10:45;;;;;;;;;;;;;;;22.65;46.90;102459.00;7249538;19;156142;-54
2023/05/02 10:13:13;;;;;;;;;;;;;;;22.68;46.50;102449.94;7252082;19;153197;-54
2023/05/02 10:15:42;;;;;;;;;;;;;;;22.71;46.55;102457.88;7247593;19;152708;-54
2023/05/02 10:18:14;;;;;;;;;;;;;;;22.74;46.38;102460.13;7246254;19;156450;-53
2023/05/02 10:20:45;;;;;;;;;;;;;;;22.75;46.23;102473.94;7255477;19;153689;-53
2023/05/02 10:23:13;;;;;;;;;;;;;;;22.77;46.15;102466.03;7255956;19;154256;-53
2023/05/02 10:25:41;;;;;;;;;;;;;;;22.80;45.70;102465.47;7250103;19;153323;-53
2023/05/02 10:28:09;;;;;;;;;;;;;;;22.82;45.55;102470.78;7246039;19;153900;-53
2023/05/02 10:30:37;;;;;;;;;;;;;;;22.84;45.41;102471.38;7248305;19;154411;-53
2023/05/02 10:33:04;;;;;;;;;;;;;;;22.84;45.33;102472.22;7251548;19;153494;-53
2023/05/02 10:35:36;;;;;;;;;;;;;;;22.86;45.30;102471.91;7249580;19;154926;-54
2023/05/02 10:38:05;;;;;;;;;;;;;;;22.87;44.92;102474.44;7249325;19;156657;-54
2023/05/02 10:40:32;;;;;;;;;;;;;;;22.89;44.18;102485.44;7253158;19;154330;-54
2023/05/02 10:43:00;;;;;;;;;;;;;;;22.88;44.55;102478.13;7263527;19;154715;-54
2023/05/02 10:45:27;;;;;;;;;;;;;;;;;;7255865;19;154188;-53
2023/05/02 10:48:05;;;;;;;;;;;;;;;22.86;44.08;102480.38;7251742;19;181586;-54
2023/05/02 10:50:43;;;;;;;;;;;;;;;22.84;44.17;102480.66;7254584;19;154677;-56
2023/05/02 10:53:20;;;;;;;;;;;;;;;22.84;43.93;102485.47;7257748;19;154607;-55
2023/05/02 10:55:58;;;;;;;;;;;;;;;22.83;43.80;102483.75;7253922;19;154285;-57
2023/05/02 10:58:25;;;;;;;;;;;;;;;22.83;43.42;102492.22;7254140;19;154465;-55
2023/05/02 11:00:52;;;;;;;;;;;;;;;22.83;43.79;102503.50;7257307;19;154405;-55
2023/05/02 11:03:40;;;;;;;;;;;;;;;22.83;43.63;102500.69;7257774;19;154136;-55
2023/05/02 11:06:08;;;;;;;;;;;;;;;22.80;43.42;102501.25;7261692;19;156032;-55
2023/05/02 11:08:35;;;;;;;;;;;;;;;22.79;43.32;102508.88;7253426;19;154495;-55
2023/05/02 11:11:12;;;;;;;;;;;;;;;22.76;43.19;102509.41;7255850;19;153854;-55
2023/05/02 11:13:47;;;;;;;;;;;;;;;22.74;43.11;102508.88;7258643;19;153005;-56
2023/05/02 11:16:14;;;;;;;;;;;;;;;22.76;42.95;102511.41;7251504;19;154150;-53
2023/05/02 11:18:57;;;;;;;;;;;;;;;22.71;42.96;102503.81;7254632;19;153825;-55
2023/05/02 11:21:27;;;;;;;;;;;;;;;22.69;43.16;102506.03;7251721;19;152545;-55
2023/05/02 11:24:15;;;;;;;;;;;;;;;22.66;42.95;102502.94;7254847;19;153069;-55
2023/05/02 11:26:42;;;;;;;;;;;;;;;22.61;43.38;102499.03;7249319;19;153935;-55
2023/05/02 11:29:09;;;;;;;;;;;;;;;22.66;43.55;102494.50;7258701;19;154515;-54
2023/05/02 11:31:38;;;;;;;;;;;;;;;22.68;43.48;102493.06;7252241;19;153790;-54
2023/05/02 11:34:05;;;;;;;;;;;;;;;22.68;43.46;102493.06;7245810;19;153822;-54
2023/05/02 11:36:32;;;;;;;;;;;;;;;22.67;43.58;102485.75;7253431;19;154009;-54
2023/05/02 11:39:00;;;;;;;;;;;;;;;22.69;43.53;102485.47;7252582;19;153543;-54
2023/05/02 11:41:36;;;;;;;;;;;;;;;22.69;43.71;102488.28;7249132;19;154207;-54
2023/05/02 11:44:04;;;;;;;;;;;;;;;22.70;43.21;102479.59;7254241;19;154982;-54
2023/05/02 11:46:32;;;;;;;;;;;;;;;22.70;43.37;102487.19;7250856;19;156373;-54
2023/05/02 11:48:59;;;;;;;;;;;;;;;22.72;43.54;102482.09;7254387;19;154394;-54
2023/05/02 11:51:27;;;;;;;;;;;;;;;22.71;43.31;102495.38;7260339;19;154529;-54
2023/05/02 11:53:55;;;;;;;;;;;;;;;22.72;43.57;102502.66;7256331;19;154722;-54
2023/05/02 11:56:25;;;;;;;;;;;;;;;22.71;43.49;102501.00;7253600;19;153848;-54
2023/05/02 11:59:00;;;;;;;;;;;;;;;22.69;43.51;102496.72;7252729;19;154007;-54
2023/05/02 12:01:28;;;;;;;;;;;;;;;22.69;43.49;102496.72;7254436;19;153434;-54
2023/05/02 12:04:06;;;;;;;;;;;;;;;22.69;43.07;102510.81;7254040;19;153789;-54
2023/05/02 12:06:34;;;;;;;;;;;;;;;22.70;43.17;102509.72;7247245;19;156432;-54
2023/05/02 12:09:12;;;;;;;;;;;;;;;22.68;43.39;102521.25;7254791;19;153345;-54
2023/05/02 12:11:43;;;;;;;;;;;;;;;22.66;43.32;102517.03;7253239;19;153629;-54
2023/05/02 12:14:11;;;;;;;;;;;;;;;22.63;43.16;102505.19;7257897;19;156294;-54
2023/05/02 12:16:40;;;;;;;;;;;;;;;22.65;43.31;102515.34;7249764;19;152363;-54
2023/05/02 12:19:07;;;;;;;;;;;;;;;22.63;43.19;102509.97;7251495;19;155287;-54
2023/05/02 12:21:35;;;;;;;;;;;;;;;22.62;43.12;102520.41;7254931;19;152096;-54
2023/05/02 12:24:05;;;;;;;;;;;;;;;22.60;43.17;102516.19;7255021;19;154138;-54
2023/05/02 12:26:33;;;;;;;;;;;;;;;22.58;43.17;102508.00;7253820;19;153989;-54
2023/05/02 12:29:01;;;;;;;;;;;;;;;22.60;42.92;102514.22;7254620;19;154073;-54
2023/05/02 12:31:30;;;;;;;;;;;;;;;22.60;43.07;102519.00;7252515;19;154921;-53
2023/05/02 12:33:59;;;;;;;;;;;;;;;22.59;43.27;102522.94;7253813;19;156887;-53